sensor_id;sensor_type;location;lat;lon;timestamp;pressure;altitude;pressure_sealevel;temperature;humidity
82035;BME280;71599;49.892;18.914;2023-08-08T00:02:34;98417.78;;;12.74;76.62
82035;BME280;71599;49.892;18.914;2023-08-08T00:07:35;98423.56;;;12.65;76.78
82035;BME280;71599;49.892;18.914;2023-08-08T00:12:36;98437.69;;;12.67;76.53
82035;BME280;71599;49.892;18.914;2023-08-08T00:17:38;98441.59;;;12.66;76.58
82035;BME280;71599;49.892;18.914;2023-08-08T00:22:39;98452.25;;;12.75;76.20
82035;BME280;71599;49.892;18.914;2023-08-08T00:27:40;98458.53;;;12.75;76.01
82035;BME280;71599;49.892;18.914;2023-08-08T00:32:42;98453.84;;;12.79;75.86
82035;BME280;71599;49.892;18.914;2023-08-08T00:37:43;98448.69;;;12.71;75.95
82035;BME280;71599;49.892;18.914;2023-08-08T00:42:44;98458.06;;;12.66;75.74
82035;BME280;71599;49.892;18.914;2023-08-08T00:47:46;98460.00;;;12.66;75.75
82035;BME280;71599;49.892;18.914;2023-08-08T00:52:48;98460.38;;;12.64;76.06
82035;BME280;71599;49.892;18.914;2023-08-08T00:57:49;98460.34;;;12.57;75.87
82035;BME280;71599;49.892;18.914;2023-08-08T01:02:51;98459.50;;;12.49;76.27
82035;BME280;71599;49.892;18.914;2023-08-08T01:07:57;98463.41;;;12.52;75.95
82035;BME280;71599;49.892;18.914;2023-08-08T01:13:02;98461.88;;;12.51;75.96
82035;BME280;71599;49.892;18.914;2023-08-08T01:18:08;98466.94;;;12.49;75.80
82035;BME280;71599;49.892;18.914;2023-08-08T01:23:14;98456.72;;;12.46;75.92
82035;BME280;71599;49.892;18.914;2023-08-08T01:28:22;98456.72;;;12.46;75.54
82035;BME280;71599;49.892;18.914;2023-08-08T01:33:23;98450.72;;;12.33;75.64
82035;BME280;71599;49.892;18.914;2023-08-08T01:38:28;98453.06;;;12.35;76.16
82035;BME280;71599;49.892;18.914;2023-08-08T01:43:32;98457.75;;;12.31;75.62
82035;BME280;71599;49.892;18.914;2023-08-08T01:48:34;98474.16;;;12.27;76.00
82035;BME280;71599;49.892;18.914;2023-08-08T01:53:35;98467.06;;;12.22;75.71
82035;BME280;71599;49.892;18.914;2023-08-08T01:58:37;98469.69;;;12.08;75.00
82035;BME280;71599;49.892;18.914;2023-08-08T02:03:38;98462.97;;;12.02;75.56
82035;BME280;71599;49.892;18.914;2023-08-08T02:08:39;98464.47;;;11.96;75.24
82035;BME280;71599;49.892;18.914;2023-08-08T02:13:41;98474.56;;;11.89;75.53
82035;BME280;71599;49.892;18.914;2023-08-08T02:18:42;98478.78;;;11.82;75.31
82035;BME280;71599;49.892;18.914;2023-08-08T02:23:43;98478.38;;;11.80;75.27
82035;BME280;71599;49.892;18.914;2023-08-08T02:28:45;98479.50;;;11.76;75.25
82035;BME280;71599;49.892;18.914;2023-08-08T02:33:48;98481.88;;;11.77;75.41
82035;BME280;71599;49.892;18.914;2023-08-08T02:38:49;98480.94;;;11.66;75.54
82035;BME280;71599;49.892;18.914;2023-08-08T02:43:51;98482.91;;;11.66;75.72
82035;BME280;71599;49.892;18.914;2023-08-08T02:48:52;98472.69;;;11.63;75.50
82035;BME280;71599;49.892;18.914;2023-08-08T02:53:53;98483.56;;;11.56;75.72
82035;BME280;71599;49.892;18.914;2023-08-08T02:58:55;98493.81;;;11.62;75.25
82035;BME280;71599;49.892;18.914;2023-08-08T03:03:56;98501.22;;;11.62;74.98
82035;BME280;71599;49.892;18.914;2023-08-08T03:08:57;98493.34;;;11.57;75.33
82035;BME280;71599;49.892;18.914;2023-08-08T03:13:59;98491.38;;;11.54;75.01
82035;BME280;71599;49.892;18.914;2023-08-08T03:19:00;98504.63;;;11.52;74.74
82035;BME280;71599;49.892;18.914;2023-08-08T03:24:01;98511.28;;;11.54;75.21
82035;BME280;71599;49.892;18.914;2023-08-08T03:29:03;98508.28;;;11.63;74.90
82035;BME280;71599;49.892;18.914;2023-08-08T03:34:04;98511.84;;;11.67;74.89
82035;BME280;71599;49.892;18.914;2023-08-08T03:39:05;98507.91;;;11.64;74.73
82035;BME280;71599;49.892;18.914;2023-08-08T03:44:07;98514.19;;;11.65;74.08
82035;BME280;71599;49.892;18.914;2023-08-08T03:49:08;98525.91;;;11.65;74.48
82035;BME280;71599;49.892;18.914;2023-08-08T03:54:09;98529.13;;;11.71;74.13
82035;BME280;71599;49.892;18.914;2023-08-08T03:59:11;98532.31;;;11.76;74.23
82035;BME280;71599;49.892;18.914;2023-08-08T04:04:12;98535.50;;;11.82;73.59
82035;BME280;71599;49.892;18.914;2023-08-08T04:09:13;98540.31;;;11.92;73.77
82035;BME280;71599;49.892;18.914;2023-08-08T04:14:15;98550.97;;;12.01;73.46
82035;BME280;71599;49.892;18.914;2023-08-08T04:19:16;98557.28;;;12.05;73.30
82035;BME280;71599;49.892;18.914;2023-08-08T04:24:17;98567.44;;;12.04;72.61
82035;BME280;71599;49.892;18.914;2023-08-08T04:29:19;98569.47;;;12.11;72.50
82035;BME280;71599;49.892;18.914;2023-08-08T04:34:20;98589.88;;;12.13;72.88
82035;BME280;71599;49.892;18.914;2023-08-08T04:39:21;98584.00;;;12.15;72.82
82035;BME280;71599;49.892;18.914;2023-08-08T04:44:24;98588.31;;;12.16;72.55
82035;BME280;71599;49.892;18.914;2023-08-08T04:49:24;98586.00;;;12.18;72.37
82035;BME280;71599;49.892;18.914;2023-08-08T04:54:25;98597.13;;;12.32;71.90
82035;BME280;71599;49.892;18.914;2023-08-08T04:59:28;98597.69;;;12.45;71.60
82035;BME280;71599;49.892;18.914;2023-08-08T05:04:30;98609.09;;;12.50;70.86
82035;BME280;71599;49.892;18.914;2023-08-08T05:09:31;98622.09;;;12.57;71.23
82035;BME280;71599;49.892;18.914;2023-08-08T05:14:33;98613.13;;;12.64;70.78
82035;BME280;71599;49.892;18.914;2023-08-08T05:19:34;98625.00;;;12.75;70.57
82035;BME280;71599;49.892;18.914;2023-08-08T05:24:35;98633.59;;;12.73;70.57
82035;BME280;71599;49.892;18.914;2023-08-08T05:29:37;98639.78;;;12.67;69.47
82035;BME280;71599;49.892;18.914;2023-08-08T05:34:38;98641.06;;;13.20;68.76
82035;BME280;71599;49.892;18.914;2023-08-08T05:39:39;98627.13;;;14.08;66.38
82035;BME280;71599;49.892;18.914;2023-08-08T05:44:41;98626.22;;;15.12;63.89
82035;BME280;71599;49.892;18.914;2023-08-08T05:49:42;98617.13;;;15.79;62.21
82035;BME280;71599;49.892;18.914;2023-08-08T05:54:43;98621.19;;;16.47;60.02
82035;BME280;71599;49.892;18.914;2023-08-08T05:59:46;98621.97;;;16.44;56.91
82035;BME280;71599;49.892;18.914;2023-08-08T06:04:47;98615.59;;;16.54;57.44
82035;BME280;71599;49.892;18.914;2023-08-08T06:09:48;98612.09;;;17.09;56.39
82035;BME280;71599;49.892;18.914;2023-08-08T06:14:50;98622.53;;;17.35;55.91
82035;BME280;71599;49.892;18.914;2023-08-08T06:19:51;98613.06;;;17.77;56.14
82035;BME280;71599;49.892;18.914;2023-08-08T06:24:52;98618.72;;;17.67;53.22
82035;BME280;71599;49.892;18.914;2023-08-08T06:29:54;98623.25;;;17.84;54.94
82035;BME280;71599;49.892;18.914;2023-08-08T06:34:55;98622.94;;;17.78;54.39
82035;BME280;71599;49.892;18.914;2023-08-08T06:39:56;98618.34;;;18.36;52.16
82035;BME280;71599;49.892;18.914;2023-08-08T06:44:58;98621.03;;;18.97;49.50
82035;BME280;71599;49.892;18.914;2023-08-08T06:49:59;98609.78;;;19.08;50.30
82035;BME280;71599;49.892;18.914;2023-08-08T06:55:01;98604.69;;;18.79;49.08
82035;BME280;71599;49.892;18.914;2023-08-08T07:00:03;98604.66;;;19.33;51.33
82035;BME280;71599;49.892;18.914;2023-08-08T07:05:05;98610.50;;;19.12;47.71
82035;BME280;71599;49.892;18.914;2023-08-08T07:10:06;98612.03;;;19.63;47.81
82035;BME280;71599;49.892;18.914;2023-08-08T07:15:09;98610.34;;;19.69;46.28
82035;BME280;71599;49.892;18.914;2023-08-08T07:20:10;98602.59;;;19.80;48.39
82035;BME280;71599;49.892;18.914;2023-08-08T07:25:11;98607.34;;;20.39;46.28
82035;BME280;71599;49.892;18.914;2023-08-08T07:30:14;98617.41;;;20.33;45.65
82035;BME280;71599;49.892;18.914;2023-08-08T07:35:15;98609.06;;;19.93;46.43
82035;BME280;71599;49.892;18.914;2023-08-08T07:40:17;98603.88;;;20.54;44.24
82035;BME280;71599;49.892;18.914;2023-08-08T07:45:20;98608.41;;;20.45;45.55
82035;BME280;71599;49.892;18.914;2023-08-08T07:50:21;98607.75;;;20.57;47.11
82035;BME280;71599;49.892;18.914;2023-08-08T07:55:22;98601.19;;;20.87;41.56
82035;BME280;71599;49.892;18.914;2023-08-08T08:00:24;98604.03;;;20.99;43.63
82035;BME280;71599;49.892;18.914;2023-08-08T08:05:25;98603.53;;;21.21;44.98
82035;BME280;71599;49.892;18.914;2023-08-08T08:10:26;98601.75;;;21.43;42.33
82035;BME280;71599;49.892;18.914;2023-08-08T08:15:28;98594.16;;;21.47;43.61
82035;BME280;71599;49.892;18.914;2023-08-08T08:20:29;98601.72;;;21.47;44.87
82035;BME280;71599;49.892;18.914;2023-08-08T08:25:30;98601.97;;;21.36;44.73
82035;BME280;71599;49.892;18.914;2023-08-08T08:30:33;98593.25;;;21.95;41.75
82035;BME280;71599;49.892;18.914;2023-08-08T08:35:34;98600.44;;;21.64;42.35
82035;BME280;71599;49.892;18.914;2023-08-08T08:40:37;98584.09;;;21.04;40.16
82035;BME280;71599;49.892;18.914;2023-08-08T08:45:40;98596.41;;;21.20;42.82
82035;BME280;71599;49.892;18.914;2023-08-08T08:50:45;98592.28;;;20.76;43.64
82035;BME280;71599;49.892;18.914;2023-08-08T08:55:47;98596.84;;;20.50;43.87
82035;BME280;71599;49.892;18.914;2023-08-08T09:00:50;98591.63;;;20.52;41.04
82035;BME280;71599;49.892;18.914;2023-08-08T09:05:52;98594.59;;;20.61;43.72
82035;BME280;71599;49.892;18.914;2023-08-08T09:10:54;98598.84;;;20.65;44.84
82035;BME280;71599;49.892;18.914;2023-08-08T09:15:56;98599.25;;;20.84;43.85
82035;BME280;71599;49.892;18.914;2023-08-08T09:20:57;98596.84;;;20.50;45.54
82035;BME280;71599;49.892;18.914;2023-08-08T09:25:58;98606.91;;;20.60;46.49
82035;BME280;71599;49.892;18.914;2023-08-08T09:31:01;98595.72;;;20.27;43.02
82035;BME280;71599;49.892;18.914;2023-08-08T09:36:02;98596.97;;;20.43;42.86
82035;BME280;71599;49.892;18.914;2023-08-08T09:41:03;98601.50;;;19.97;43.52
82035;BME280;71599;49.892;18.914;2023-08-08T09:46:08;98597.81;;;19.61;43.99
82035;BME280;71599;49.892;18.914;2023-08-08T09:51:09;98597.53;;;19.32;46.81
82035;BME280;71599;49.892;18.914;2023-08-08T09:56:10;98596.03;;;19.00;47.19
82035;BME280;71599;49.892;18.914;2023-08-08T10:01:14;98583.59;;;19.12;46.56
82035;BME280;71599;49.892;18.914;2023-08-08T10:06:15;98585.94;;;19.80;46.39
82035;BME280;71599;49.892;18.914;2023-08-08T10:11:17;98581.06;;;19.88;43.00
82035;BME280;71599;49.892;18.914;2023-08-08T10:16:22;98586.19;;;20.29;42.26
82035;BME280;71599;49.892;18.914;2023-08-08T10:21:23;98569.03;;;20.34;42.79
82035;BME280;71599;49.892;18.914;2023-08-08T10:26:25;98564.63;;;21.04;41.47
82035;BME280;71599;49.892;18.914;2023-08-08T10:31:33;98576.25;;;21.48;40.52
82035;BME280;71599;49.892;18.914;2023-08-08T10:36:47;98551.59;;;21.01;40.56
82035;BME280;71599;49.892;18.914;2023-08-08T10:41:50;98545.34;;;20.97;40.12
82035;BME280;71599;49.892;18.914;2023-08-08T10:46:53;98558.56;;;20.57;38.65
82035;BME280;71599;49.892;18.914;2023-08-08T10:51:54;98557.84;;;20.01;40.43
82035;BME280;71599;49.892;18.914;2023-08-08T10:57:02;98569.53;;;19.26;42.10
82035;BME280;71599;49.892;18.914;2023-08-08T11:02:05;98566.03;;;19.22;43.77
82035;BME280;71599;49.892;18.914;2023-08-08T11:07:07;98576.72;;;18.97;42.56
82035;BME280;71599;49.892;18.914;2023-08-08T11:12:13;98572.13;;;18.87;44.45
82035;BME280;71599;49.892;18.914;2023-08-08T11:17:16;98589.31;;;18.75;45.46
82035;BME280;71599;49.892;18.914;2023-08-08T11:22:21;98574.22;;;18.22;44.91
82035;BME280;71599;49.892;18.914;2023-08-08T11:27:23;98590.97;;;17.77;47.25
82035;BME280;71599;49.892;18.914;2023-08-08T11:32:27;98589.47;;;18.03;46.28
82035;BME280;71599;49.892;18.914;2023-08-08T11:37:28;98586.66;;;18.67;46.27
82035;BME280;71599;49.892;18.914;2023-08-08T11:42:29;98597.53;;;18.55;46.22
82035;BME280;71599;49.892;18.914;2023-08-08T11:47:32;98590.09;;;19.02;45.71
82035;BME280;71599;49.892;18.914;2023-08-08T11:52:34;98596.41;;;19.02;45.39
82035;BME280;71599;49.892;18.914;2023-08-08T11:57:36;98599.56;;;18.78;44.77
82035;BME280;71599;49.892;18.914;2023-08-08T12:02:39;98608.63;;;18.51;43.60
82035;BME280;71599;49.892;18.914;2023-08-08T12:07:40;98623.94;;;18.29;46.98
82035;BME280;71599;49.892;18.914;2023-08-08T12:12:41;98626.84;;;18.18;47.05
82035;BME280;71599;49.892;18.914;2023-08-08T12:17:45;98616.31;;;18.40;45.77
82035;BME280;71599;49.892;18.914;2023-08-08T12:22:47;98609.63;;;18.64;45.74
82035;BME280;71599;49.892;18.914;2023-08-08T12:27:48;98606.13;;;18.87;45.89
82035;BME280;71599;49.892;18.914;2023-08-08T12:32:50;98611.53;;;18.98;45.53
82035;BME280;71599;49.892;18.914;2023-08-08T12:37:51;98608.09;;;19.14;43.95
82035;BME280;71599;49.892;18.914;2023-08-08T12:42:52;98594.16;;;19.44;43.36
82035;BME280;71599;49.892;18.914;2023-08-08T12:47:55;98599.91;;;19.06;45.53
82035;BME280;71599;49.892;18.914;2023-08-08T12:52:56;98590.28;;;19.15;44.91
82035;BME280;71599;49.892;18.914;2023-08-08T12:57:57;98590.03;;;19.29;43.90
82035;BME280;71599;49.892;18.914;2023-08-08T13:02:59;98588.81;;;19.96;41.36
82035;BME280;71599;49.892;18.914;2023-08-08T13:08:00;98593.47;;;20.39;39.86
82035;BME280;71599;49.892;18.914;2023-08-08T13:13:01;98578.34;;;20.43;42.40
82035;BME280;71599;49.892;18.914;2023-08-08T13:18:04;98584.69;;;20.44;40.66
82035;BME280;71599;49.892;18.914;2023-08-08T13:23:05;98579.84;;;20.64;40.81
82035;BME280;71599;49.892;18.914;2023-08-08T13:28:06;98574.00;;;20.94;40.80
82035;BME280;71599;49.892;18.914;2023-08-08T13:33:09;98570.13;;;21.37;40.33
82035;BME280;71599;49.892;18.914;2023-08-08T13:38:10;98570.53;;;21.23;41.87
82035;BME280;71599;49.892;18.914;2023-08-08T13:43:11;98564.88;;;20.94;40.81
82035;BME280;71599;49.892;18.914;2023-08-08T13:48:13;98565.91;;;21.32;38.84
82035;BME280;71599;49.892;18.914;2023-08-08T13:53:14;98561.41;;;21.22;38.44
82035;BME280;71599;49.892;18.914;2023-08-08T13:58:15;98571.81;;;21.18;41.59
82035;BME280;71599;49.892;18.914;2023-08-08T14:03:18;98558.13;;;20.79;39.65
82035;BME280;71599;49.892;18.914;2023-08-08T14:08:19;98577.53;;;20.07;41.36
82035;BME280;71599;49.892;18.914;2023-08-08T14:13:20;98589.88;;;19.39;40.74
82035;BME280;71599;49.892;18.914;2023-08-08T14:18:22;98595.44;;;19.13;43.56
82035;BME280;71599;49.892;18.914;2023-08-08T14:23:23;98605.50;;;18.76;45.42
82035;BME280;71599;49.892;18.914;2023-08-08T14:28:24;98637.75;;;17.95;47.59
82035;BME280;71599;49.892;18.914;2023-08-08T14:33:26;98652.28;;;17.17;53.39
82035;BME280;71599;49.892;18.914;2023-08-08T14:38:27;98642.16;;;17.00;55.41
82035;BME280;71599;49.892;18.914;2023-08-08T14:43:28;98643.13;;;16.72;55.79
82035;BME280;71599;49.892;18.914;2023-08-08T14:48:31;98622.59;;;16.73;57.50
82035;BME280;71599;49.892;18.914;2023-08-08T14:53:32;98607.63;;;16.74;58.72
82035;BME280;71599;49.892;18.914;2023-08-08T14:58:33;98618.06;;;16.42;58.50
82035;BME280;71599;49.892;18.914;2023-08-08T15:03:35;98601.13;;;16.40;58.83
82035;BME280;71599;49.892;18.914;2023-08-08T15:08:36;98598.16;;;16.75;58.63
82035;BME280;71599;49.892;18.914;2023-08-08T15:13:37;98603.00;;;17.12;57.55
82035;BME280;71599;49.892;18.914;2023-08-08T15:18:39;98610.34;;;17.29;56.54
82035;BME280;71599;49.892;18.914;2023-08-08T15:23:40;98603.06;;;17.53;54.54
82035;BME280;71599;49.892;18.914;2023-08-08T15:28:41;98602.00;;;17.81;52.99
82035;BME280;71599;49.892;18.914;2023-08-08T15:33:44;98598.56;;;18.04;53.44
82035;BME280;71599;49.892;18.914;2023-08-08T15:38:45;98586.22;;;18.12;52.76
82035;BME280;71599;49.892;18.914;2023-08-08T15:43:46;98590.41;;;17.90;53.35
82035;BME280;71599;49.892;18.914;2023-08-08T15:48:48;98582.84;;;17.63;54.11
82035;BME280;71599;49.892;18.914;2023-08-08T15:53:49;98574.16;;;17.61;55.00
82035;BME280;71599;49.892;18.914;2023-08-08T15:58:50;98551.09;;;18.09;53.32
82035;BME280;71599;49.892;18.914;2023-08-08T16:03:52;98565.44;;;18.00;54.26
82035;BME280;71599;49.892;18.914;2023-08-08T16:08:53;98567.41;;;17.66;54.16
82035;BME280;71599;49.892;18.914;2023-08-08T16:13:54;98559.34;;;17.78;54.60
82035;BME280;71599;49.892;18.914;2023-08-08T16:18:56;98567.44;;;17.96;55.62
82035;BME280;71599;49.892;18.914;2023-08-08T16:23:57;98552.00;;;17.99;55.14
82035;BME280;71599;49.892;18.914;2023-08-08T16:28:58;98560.84;;;17.87;54.93
82035;BME280;71599;49.892;18.914;2023-08-08T16:34:01;98568.25;;;17.59;55.88
82035;BME280;71599;49.892;18.914;2023-08-08T16:39:02;98567.91;;;17.54;54.93
82035;BME280;71599;49.892;18.914;2023-08-08T16:44:04;98568.50;;;17.72;57.28
82035;BME280;71599;49.892;18.914;2023-08-08T16:49:07;98567.38;;;17.69;55.39
82035;BME280;71599;49.892;18.914;2023-08-08T16:54:08;98560.72;;;17.63;53.57
82035;BME280;71599;49.892;18.914;2023-08-08T16:59:09;98559.34;;;17.41;53.74
82035;BME280;71599;49.892;18.914;2023-08-08T17:04:11;98562.34;;;17.16;52.74
82035;BME280;71599;49.892;18.914;2023-08-08T17:09:13;98557.69;;;17.06;53.49
82035;BME280;71599;49.892;18.914;2023-08-08T17:14:13;98555.91;;;16.85;53.40
82035;BME280;71599;49.892;18.914;2023-08-08T17:19:17;98552.44;;;16.74;54.47
82035;BME280;71599;49.892;18.914;2023-08-08T17:24:18;98566.38;;;16.56;54.77
82035;BME280;71599;49.892;18.914;2023-08-08T17:29:18;98564.88;;;16.38;55.30
82035;BME280;71599;49.892;18.914;2023-08-08T17:34:21;98565.72;;;16.24;55.71
82035;BME280;71599;49.892;18.914;2023-08-08T17:39:22;98566.59;;;16.10;56.48
82035;BME280;71599;49.892;18.914;2023-08-08T17:44:23;98558.72;;;16.05;56.23
82035;BME280;71599;49.892;18.914;2023-08-08T17:49:25;98559.66;;;15.74;56.79
82035;BME280;71599;49.892;18.914;2023-08-08T17:54:26;98562.44;;;15.60;57.58
82035;BME280;71599;49.892;18.914;2023-08-08T17:59:28;98558.53;;;15.39;57.64
82035;BME280;71599;49.892;18.914;2023-08-08T18:04:30;98570.34;;;15.29;57.72
82035;BME280;71599;49.892;18.914;2023-08-08T18:09:31;98562.50;;;15.17;57.88
82035;BME280;71599;49.892;18.914;2023-08-08T18:14:32;98573.13;;;15.12;57.99
82035;BME280;71599;49.892;18.914;2023-08-08T18:19:35;98580.59;;;15.04;58.15
82035;BME280;71599;49.892;18.914;2023-08-08T18:24:36;98581.00;;;15.06;58.56
82035;BME280;71599;49.892;18.914;2023-08-08T18:29:37;98581.00;;;14.99;59.14
82035;BME280;71599;49.892;18.914;2023-08-08T18:34:39;98581.00;;;14.99;58.75
82035;BME280;71599;49.892;18.914;2023-08-08T18:39:40;98582.16;;;14.84;58.92
82035;BME280;71599;49.892;18.914;2023-08-08T18:44:41;98586.09;;;14.69;58.98
82035;BME280;71599;49.892;18.914;2023-08-08T18:49:44;98585.25;;;14.54;59.36
82035;BME280;71599;49.892;18.914;2023-08-08T18:54:45;98590.34;;;14.55;59.68
82035;BME280;71599;49.892;18.914;2023-08-08T18:59:46;98592.31;;;14.55;59.56
82035;BME280;71599;49.892;18.914;2023-08-08T19:04:48;98588.78;;;14.51;59.64
82035;BME280;71599;49.892;18.914;2023-08-08T19:09:49;98586.00;;;14.47;59.52
82035;BME280;71599;49.892;18.914;2023-08-08T19:14:50;98586.41;;;14.49;59.99
82035;BME280;71599;49.892;18.914;2023-08-08T19:19:53;98580.91;;;14.39;59.97
82035;BME280;71599;49.892;18.914;2023-08-08T19:24:54;98584.38;;;14.25;60.49
82035;BME280;71599;49.892;18.914;2023-08-08T19:29:55;98569.09;;;14.28;60.33
82035;BME280;71599;49.892;18.914;2023-08-08T19:34:58;98571.84;;;14.31;60.35
82035;BME280;71599;49.892;18.914;2023-08-08T19:39:59;98559.69;;;14.32;60.02
82035;BME280;71599;49.892;18.914;2023-08-08T19:45:00;98568.72;;;14.36;60.36
82035;BME280;71599;49.892;18.914;2023-08-08T19:50:04;98568.72;;;14.36;61.00
82035;BME280;71599;49.892;18.914;2023-08-08T19:55:07;98562.06;;;14.44;60.05
82035;BME280;71599;49.892;18.914;2023-08-08T20:00:08;98567.97;;;14.46;60.47
82035;BME280;71599;49.892;18.914;2023-08-08T20:05:11;98565.59;;;14.55;60.42
82035;BME280;71599;49.892;18.914;2023-08-08T20:10:12;98562.47;;;14.57;60.29
82035;BME280;71599;49.892;18.914;2023-08-08T20:15:13;98560.94;;;14.63;59.73
82035;BME280;71599;49.892;18.914;2023-08-08T20:20:15;98561.72;;;14.78;58.91
82035;BME280;71599;49.892;18.914;2023-08-08T20:25:16;98572.75;;;14.81;59.98
82035;BME280;71599;49.892;18.914;2023-08-08T20:30:17;98566.81;;;14.72;60.06
82035;BME280;71599;49.892;18.914;2023-08-08T20:35:19;98562.50;;;14.85;59.25
82035;BME280;71599;49.892;18.914;2023-08-08T20:40:20;98572.34;;;14.83;59.44
82035;BME280;71599;49.892;18.914;2023-08-08T20:45:21;98581.78;;;14.75;59.23
82035;BME280;71599;49.892;18.914;2023-08-08T20:50:24;98587.66;;;14.70;61.36
82035;BME280;71599;49.892;18.914;2023-08-08T20:55:25;98576.59;;;14.48;62.90
82035;BME280;71599;49.892;18.914;2023-08-08T21:00:26;98549.84;;;14.24;64.81
82035;BME280;71599;49.892;18.914;2023-08-08T21:05:28;98543.59;;;14.34;65.41
82035;BME280;71599;49.892;18.914;2023-08-08T21:10:29;98549.09;;;14.48;64.04
82035;BME280;71599;49.892;18.914;2023-08-08T21:15:30;98549.13;;;14.52;63.92
82035;BME280;71599;49.892;18.914;2023-08-08T21:20:33;98578.94;;;14.53;64.04
82035;BME280;71599;49.892;18.914;2023-08-08T21:25:34;98619.72;;;14.23;64.26
82035;BME280;71599;49.892;18.914;2023-08-08T21:30:35;98601.69;;;14.26;62.04
82035;BME280;71599;49.892;18.914;2023-08-08T21:35:37;98624.13;;;14.49;61.44
82035;BME280;71599;49.892;18.914;2023-08-08T21:40:38;98615.50;;;14.57;61.96
82035;BME280;71599;49.892;18.914;2023-08-08T21:45:39;98596.66;;;14.59;63.32
82035;BME280;71599;49.892;18.914;2023-08-08T21:50:41;98586.06;;;14.65;64.33
82035;BME280;71599;49.892;18.914;2023-08-08T21:55:42;98594.69;;;14.56;63.95
82035;BME280;71599;49.892;18.914;2023-08-08T22:00:43;98599.34;;;14.38;65.22
82035;BME280;71599;49.892;18.914;2023-08-08T22:05:46;98615.78;;;14.24;66.33
82035;BME280;71599;49.892;18.914;2023-08-08T22:10:47;98615.75;;;14.13;67.20
82035;BME280;71599;49.892;18.914;2023-08-08T22:15:48;98610.28;;;14.17;67.04
82035;BME280;71599;49.892;18.914;2023-08-08T22:20:50;98600.81;;;14.11;71.27
82035;BME280;71599;49.892;18.914;2023-08-08T22:25:51;98610.25;;;14.10;70.17
82035;BME280;71599;49.892;18.914;2023-08-08T22:30:52;98595.22;;;13.86;72.33
82035;BME280;71599;49.892;18.914;2023-08-08T22:35:54;98603.00;;;13.70;72.46
82035;BME280;71599;49.892;18.914;2023-08-08T22:40:55;98601.13;;;13.88;70.46
82035;BME280;71599;49.892;18.914;2023-08-08T22:45:56;98599.22;;;13.96;69.40
82035;BME280;71599;49.892;18.914;2023-08-08T22:50:58;98590.56;;;13.94;71.52
82035;BME280;71599;49.892;18.914;2023-08-08T22:55:59;98577.91;;;13.75;72.15
82035;BME280;71599;49.892;18.914;2023-08-08T23:01:00;98578.34;;;13.88;70.34
82035;BME280;71599;49.892;18.914;2023-08-08T23:06:03;98583.91;;;13.98;70.05
82035;BME280;71599;49.892;18.914;2023-08-08T23:11:04;98573.25;;;13.82;71.72
82035;BME280;71599;49.892;18.914;2023-08-08T23:16:05;98576.75;;;13.72;71.85
82035;BME280;71599;49.892;18.914;2023-08-08T23:21:07;98574.41;;;13.81;72.17
82035;BME280;71599;49.892;18.914;2023-08-08T23:26:08;98574.28;;;13.57;73.25
82035;BME280;71599;49.892;18.914;2023-08-08T23:31:09;98576.28;;;13.63;72.31
82035;BME280;71599;49.892;18.914;2023-08-08T23:36:11;98572.41;;;13.71;72.59
82035;BME280;71599;49.892;18.914;2023-08-08T23:41:12;98573.91;;;13.62;72.17
82035;BME280;71599;49.892;18.914;2023-08-08T23:46:14;98575.53;;;13.70;71.71
82035;BME280;71599;49.892;18.914;2023-08-08T23:51:19;98564.19;;;13.71;72.11
82035;BME280;71599;49.892;18.914;2023-08-08T23:56:20;98551.66;;;13.77;71.40
